Ostrica, Louisiana
Current Conditions -  °F | °C
As of 7:20 AM on Monday 22 Dec 2014 (Local Time) from KBVE Reporting Station
Haze Haze  
Wind Chill: 17°   Ceiling: 1800
Heat Index: 17°   Visibility: 5mi
Dew Point: 17°   Wind: 5mph
Humidity: 97%   Direction: 120°ESE
Pressure: 29.86"   Gusts: NA
Location:  29.2996°N, 89.4367°W
Report Text: KBVE 221320Z AUTO 12004KT 5SM BR FEW011 BKN018 OVC070 17/17 A2986 RMK AO2 T01720167
Loading
Personal Weather Stations






























Interactive Weather Map New forecast layout! Learn more

10-Day Weather Forecast

Advertisements
Track Severe Weather on mobile